createdAt,value
2018-01-26T00:00:08.046Z,4.9
2018-01-26T00:01:10.533Z,4.9
2018-01-26T00:02:13.044Z,4.9
2018-01-26T00:03:15.528Z,5
2018-01-26T00:04:18.324Z,4.9
2018-01-26T00:05:20.814Z,5
2018-01-26T00:06:23.312Z,5
2018-01-26T00:07:25.807Z,5
2018-01-26T00:08:28.302Z,5.2
2018-01-26T00:09:31.362Z,5
2018-01-26T00:10:33.871Z,5
2018-01-26T00:11:36.364Z,4.9
2018-01-26T00:12:38.862Z,5
2018-01-26T00:13:41.358Z,4.9
2018-01-26T00:14:43.859Z,4.9
2018-01-26T00:15:46.346Z,4.9
2018-01-26T00:16:49.140Z,4.9
2018-01-26T00:17:51.625Z,5
2018-01-26T00:18:54.131Z,5
2018-01-26T00:19:56.617Z,5
2018-01-26T00:20:59.112Z,4.9
2018-01-26T00:22:01.890Z,4.9
2018-01-26T00:23:04.386Z,5.2
2018-01-26T00:24:06.879Z,5
2018-01-26T00:25:09.370Z,5
2018-01-26T00:26:12.157Z,5
2018-01-26T00:27:14.955Z,5
2018-01-26T00:28:17.452Z,5
2018-01-26T00:29:19.937Z,5
2018-01-26T00:30:22.435Z,5
2018-01-26T00:31:24.937Z,4.9
2018-01-26T00:32:27.426Z,4.9
2018-01-26T00:33:29.925Z,5
2018-01-26T00:34:32.412Z,4.9
2018-01-26T00:35:34.904Z,5
2018-01-26T00:36:37.421Z,5.1
2018-01-26T00:37:39.913Z,4.9
2018-01-26T00:38:42.990Z,5
2018-01-26T00:39:45.490Z,5.1
2018-01-26T00:40:47.969Z,5
2018-01-26T00:41:50.477Z,5
2018-01-26T00:42:52.975Z,5
2018-01-26T00:43:55.457Z,4.9
2018-01-26T00:44:58.540Z,4.9
2018-01-26T00:46:01.329Z,4.9
2018-01-26T00:47:03.825Z,4.9
2018-01-26T00:48:06.613Z,4.9
2018-01-26T00:49:09.104Z,5.2
2018-01-26T00:50:11.886Z,5.1
2018-01-26T00:51:14.385Z,5
2018-01-26T00:52:17.168Z,5.1
2018-01-26T00:53:19.651Z,4.9
2018-01-26T00:54:22.142Z,4.9
2018-01-26T00:55:24.647Z,5
2018-01-26T00:56:27.141Z,5.1
2018-01-26T00:57:29.637Z,4.9
2018-01-26T00:58:32.125Z,5
2018-01-26T00:59:34.619Z,4.9
2018-01-26T01:00:37.117Z,5
2018-01-26T01:01:39.615Z,5.1
2018-01-26T01:02:42.096Z,5
2018-01-26T01:03:44.595Z,4.9
2018-01-26T01:04:47.087Z,4.9
2018-01-26T01:05:49.596Z,4.9
2018-01-26T01:06:52.085Z,4.9
2018-01-26T01:07:54.586Z,5
2018-01-26T01:08:57.073Z,5
2018-01-26T01:09:59.573Z,5
2018-01-26T01:11:02.064Z,5
2018-01-26T01:12:04.562Z,4.9
2018-01-26T01:13:07.057Z,5.1
2018-01-26T01:14:09.551Z,5
2018-01-26T01:15:12.046Z,5
2018-01-26T01:16:14.552Z,4.9
2018-01-26T01:17:17.039Z,5
2018-01-26T01:18:19.536Z,5
2018-01-26T01:19:22.341Z,5
2018-01-26T01:20:24.837Z,4.9
2018-01-26T01:21:27.326Z,5
2018-01-26T01:22:29.826Z,4.9
2018-01-26T01:23:32.321Z,5
2018-01-26T01:24:35.095Z,4.9
2018-01-26T01:25:37.602Z,5
2018-01-26T01:26:40.114Z,4.9
2018-01-26T01:27:42.606Z,5.1
2018-01-26T01:28:45.100Z,5
2018-01-26T01:29:47.889Z,5
2018-01-26T01:30:50.382Z,5.1
2018-01-26T01:31:53.169Z,5
2018-01-26T01:32:55.667Z,5
2018-01-26T01:33:58.147Z,4.9
2018-01-26T01:35:00.943Z,4.9
2018-01-26T01:36:03.439Z,4.9
2018-01-26T01:37:06.250Z,4.9
2018-01-26T01:38:08.748Z,4.9
2018-01-26T01:39:11.237Z,5
2018-01-26T01:40:13.724Z,5
2018-01-26T01:41:16.239Z,5
2018-01-26T01:42:19.032Z,5
2018-01-26T01:43:21.526Z,5.1
2018-01-26T01:44:24.038Z,5
2018-01-26T01:45:26.530Z,5
2018-01-26T01:46:29.026Z,5
2018-01-26T01:47:31.528Z,4.9
2018-01-26T01:48:34.012Z,5
2018-01-26T01:49:36.514Z,5.1
2018-01-26T01:50:39.292Z,5
2018-01-26T01:51:41.788Z,5
2018-01-26T01:52:44.572Z,5.2
2018-01-26T01:53:47.066Z,5
2018-01-26T01:54:49.571Z,4.9
2018-01-26T01:55:52.062Z,4.9
2018-01-26T01:56:54.564Z,4.9
2018-01-26T01:57:57.053Z,4.9
2018-01-26T01:58:59.542Z,5.1
2018-01-26T02:00:02.060Z,5
2018-01-26T02:01:04.833Z,5
2018-01-26T02:02:07.333Z,4.9
2018-01-26T02:03:09.822Z,5
2018-01-26T02:04:12.321Z,5
2018-01-26T02:05:14.815Z,4.9
2018-01-26T02:06:17.316Z,5
2018-01-26T02:07:19.804Z,5.1
2018-01-26T02:08:22.299Z,5
2018-01-26T02:09:24.797Z,5.1
2018-01-26T02:10:27.293Z,4.9
2018-01-26T02:11:30.102Z,5.1
2018-01-26T02:12:32.591Z,5
2018-01-26T02:13:35.087Z,4.9
2018-01-26T02:14:38.167Z,4.9
2018-01-26T02:15:40.649Z,4.9
2018-01-26T02:16:43.458Z,4.9
2018-01-26T02:17:45.950Z,4.9
2018-01-26T02:18:48.448Z,4.9
2018-01-26T02:19:50.943Z,5.1
2018-01-26T02:20:53.736Z,5.1
2018-01-26T02:21:56.220Z,5
2018-01-26T02:22:58.724Z,5
2018-01-26T02:24:01.235Z,5
2018-01-26T02:25:03.718Z,5
2018-01-26T02:26:06.217Z,4.9
2018-01-26T02:27:08.708Z,4.9
2018-01-26T02:28:11.203Z,5
2018-01-26T02:29:13.704Z,5
2018-01-26T02:30:16.204Z,5
2018-01-26T02:31:18.695Z,5.1
2018-01-26T02:32:21.205Z,5
2018-01-26T02:33:23.993Z,4.9
2018-01-26T02:34:26.501Z,5
2018-01-26T02:35:28.985Z,4.9
2018-01-26T02:36:31.772Z,4.9
2018-01-26T02:37:34.262Z,5
2018-01-26T02:38:37.061Z,5
2018-01-26T02:39:39.555Z,5.2
2018-01-26T02:40:42.049Z,5
2018-01-26T02:41:44.539Z,5.1
2018-01-26T02:42:47.044Z,5.1
2018-01-26T02:43:49.536Z,5.1
2018-01-26T02:44:52.029Z,4.9
2018-01-26T02:45:54.523Z,4.9
2018-01-26T02:46:57.026Z,5
2018-01-26T02:47:59.523Z,4.9
2018-01-26T02:49:02.024Z,5
2018-01-26T02:50:04.806Z,5.2
2018-01-26T02:51:07.592Z,5
2018-01-26T02:52:10.081Z,5
2018-01-26T02:53:12.579Z,5.1
2018-01-26T02:54:15.361Z,5
2018-01-26T02:55:18.494Z,5
2018-01-26T02:56:20.985Z,5
2018-01-26T02:57:23.479Z,4.9
2018-01-26T02:58:25.973Z,4.9
2018-01-26T02:59:28.771Z,4.9
2018-01-26T03:00:31.269Z,5
2018-01-26T03:01:33.770Z,4.9
2018-01-26T03:02:36.262Z,5
2018-01-26T03:03:38.762Z,5
2018-01-26T03:04:41.247Z,5
2018-01-26T03:05:43.753Z,4.9
2018-01-26T03:06:46.237Z,5
2018-01-26T03:07:48.734Z,4.9
2018-01-26T03:08:51.224Z,4.9
2018-01-26T03:09:53.723Z,5.1
2018-01-26T03:10:56.220Z,5
2018-01-26T03:11:59.003Z,5.1
2018-01-26T03:13:01.493Z,5
2018-01-26T03:14:04.358Z,5
2018-01-26T03:15:07.134Z,5
2018-01-26T03:16:09.915Z,5
2018-01-26T03:17:12.415Z,4.9
2018-01-26T03:18:14.914Z,5
2018-01-26T03:19:17.400Z,4.9
2018-01-26T03:20:19.910Z,4.9
2018-01-26T03:21:22.383Z,4.9
2018-01-26T03:22:24.877Z,5
2018-01-26T03:23:27.395Z,5.1
2018-01-26T03:24:29.891Z,5
2018-01-26T03:25:32.384Z,4.9
2018-01-26T03:26:34.871Z,4.9
2018-01-26T03:27:37.372Z,5
2018-01-26T03:28:40.178Z,5
2018-01-26T03:29:42.681Z,5
2018-01-26T03:30:45.475Z,4.9
2018-01-26T03:31:47.971Z,5
2018-01-26T03:32:50.478Z,5.1
2018-01-26T03:33:52.970Z,5
2018-01-26T03:34:55.461Z,5
2018-01-26T03:35:58.273Z,5
2018-01-26T03:37:00.757Z,5
2018-01-26T03:38:03.265Z,5
2018-01-26T03:39:05.759Z,5
2018-01-26T03:40:08.534Z,4.9
2018-01-26T03:41:11.024Z,4.9
2018-01-26T03:42:13.518Z,5
2018-01-26T03:43:16.011Z,5.1
2018-01-26T03:44:18.517Z,5.1
2018-01-26T03:45:20.999Z,5.1
2018-01-26T03:46:23.497Z,5.1
2018-01-26T03:47:26.008Z,4.9
2018-01-26T03:48:28.500Z,5
2018-01-26T03:49:31.001Z,5
2018-01-26T03:50:34.069Z,5
2018-01-26T03:51:36.565Z,5.2
2018-01-26T03:52:39.354Z,4.9
2018-01-26T03:53:41.836Z,5.2
2018-01-26T03:54:44.349Z,5
2018-01-26T03:55:46.843Z,5
2018-01-26T03:56:49.336Z,5.2
2018-01-26T03:57:51.833Z,5
2018-01-26T03:58:54.603Z,5
2018-01-26T03:59:57.384Z,4.9
2018-01-26T04:00:59.887Z,5
2018-01-26T04:02:02.700Z,5
2018-01-26T04:03:05.200Z,5
2018-01-26T04:04:07.694Z,5
2018-01-26T04:05:10.193Z,5.1
2018-01-26T04:06:12.694Z,5.1
2018-01-26T04:07:15.194Z,5.1
2018-01-26T04:08:17.685Z,5
2018-01-26T04:09:20.189Z,5
2018-01-26T04:10:22.682Z,4.9
2018-01-26T04:11:25.179Z,5
2018-01-26T04:12:27.668Z,5
2018-01-26T04:13:30.172Z,5
2018-01-26T04:14:32.655Z,5
2018-01-26T04:15:35.161Z,5
2018-01-26T04:16:37.656Z,5
2018-01-26T04:17:40.151Z,5
2018-01-26T04:18:42.646Z,5.1
2018-01-26T04:19:45.433Z,5
2018-01-26T04:20:47.912Z,4.9
2018-01-26T04:21:50.430Z,4.9
2018-01-26T04:22:52.916Z,5
2018-01-26T04:23:55.416Z,5.1
2018-01-26T04:24:57.907Z,5.1
2018-01-26T04:26:00.699Z,5
2018-01-26T04:27:03.195Z,5
2018-01-26T04:28:05.685Z,5
2018-01-26T04:29:08.185Z,5
2018-01-26T04:30:10.675Z,5.1
2018-01-26T04:31:13.170Z,5
2018-01-26T04:32:16.247Z,5
2018-01-26T04:33:19.030Z,5.1
2018-01-26T04:34:21.524Z,5.1
2018-01-26T04:35:24.020Z,5.1
2018-01-26T04:36:26.515Z,5
2018-01-26T04:37:29.029Z,5
2018-01-26T04:38:31.528Z,5
2018-01-26T04:39:34.014Z,5
2018-01-26T04:40:36.512Z,5
2018-01-26T04:41:39.020Z,5
2018-01-26T04:42:41.513Z,5
2018-01-26T04:43:44.010Z,5.1
2018-01-26T04:44:46.500Z,5.1
2018-01-26T04:45:49.008Z,5.1
2018-01-26T04:46:51.524Z,5
2018-01-26T04:47:54.015Z,5
2018-01-26T04:48:56.497Z,4.9
2018-01-26T04:49:59.280Z,5
2018-01-26T04:51:01.781Z,5
2018-01-26T04:52:04.277Z,5
2018-01-26T04:53:06.771Z,5.1
2018-01-26T04:54:09.269Z,5
2018-01-26T04:55:11.755Z,5.1
2018-01-26T04:56:14.252Z,5.1
2018-01-26T04:57:16.744Z,5
2018-01-26T04:58:19.532Z,4.9
2018-01-26T04:59:22.032Z,5
2018-01-26T05:00:24.532Z,5
2018-01-26T05:01:27.023Z,5
2018-01-26T05:02:29.521Z,5
2018-01-26T05:03:32.308Z,5.1
2018-01-26T05:04:34.808Z,5.1
2018-01-26T05:05:37.303Z,5.1
2018-01-26T05:06:39.800Z,5.1
2018-01-26T05:07:42.299Z,5
2018-01-26T05:08:44.800Z,5
2018-01-26T05:09:47.304Z,5
2018-01-26T05:10:49.791Z,4.9
2018-01-26T05:11:52.287Z,4.9
2018-01-26T05:12:54.793Z,5
2018-01-26T05:13:57.281Z,5
2018-01-26T05:14:59.771Z,5
2018-01-26T05:16:02.271Z,5.1
2018-01-26T05:17:04.764Z,4.9
2018-01-26T05:18:07.266Z,5
2018-01-26T05:19:09.764Z,5
2018-01-26T05:20:12.242Z,4.9
2018-01-26T05:21:15.037Z,5
2018-01-26T05:22:17.530Z,5
2018-01-26T05:23:20.029Z,5.1
2018-01-26T05:24:22.516Z,5
2018-01-26T05:25:25.028Z,5
2018-01-26T05:26:27.522Z,4.9
2018-01-26T05:27:30.007Z,5
2018-01-26T05:28:32.798Z,5
2018-01-26T05:29:35.289Z,5
2018-01-26T05:30:37.787Z,5
2018-01-26T05:31:40.292Z,5
2018-01-26T05:32:42.778Z,5
2018-01-26T05:33:45.276Z,5
2018-01-26T05:34:47.788Z,5
2018-01-26T05:35:50.281Z,5
2018-01-26T05:36:52.788Z,4.9
2018-01-26T05:37:55.280Z,5.1
2018-01-26T05:38:57.773Z,4.9
2018-01-26T05:40:00.276Z,5.1
2018-01-26T05:41:02.770Z,5
2018-01-26T05:42:05.265Z,5
2018-01-26T05:43:07.764Z,5
2018-01-26T05:44:10.241Z,4.9
2018-01-26T05:45:12.746Z,4.9
2018-01-26T05:46:15.240Z,4.9
2018-01-26T05:47:17.742Z,5
2018-01-26T05:48:20.240Z,5
2018-01-26T05:49:22.731Z,4.9
2018-01-26T05:50:25.226Z,5
2018-01-26T05:51:27.734Z,5
2018-01-26T05:52:30.228Z,5
2018-01-26T05:53:33.288Z,5.2
2018-01-26T05:54:35.788Z,5.1
2018-01-26T05:55:38.291Z,5.1
2018-01-26T05:56:41.079Z,5
2018-01-26T05:57:43.580Z,5
2018-01-26T05:58:46.059Z,4.9
2018-01-26T05:59:48.557Z,5.1
2018-01-26T06:00:51.068Z,5.1
2018-01-26T06:01:53.552Z,5
2018-01-26T06:02:56.049Z,5.1
2018-01-26T06:03:58.540Z,5
2018-01-26T06:05:01.043Z,5
2018-01-26T06:06:03.538Z,4.9
2018-01-26T06:07:06.038Z,4.9
2018-01-26T06:08:08.529Z,4.9
2018-01-26T06:09:11.019Z,5
2018-01-26T06:10:13.536Z,5.1
2018-01-26T06:11:16.016Z,5
2018-01-26T06:12:18.522Z,5.1
2018-01-26T06:13:21.015Z,5
2018-01-26T06:14:23.512Z,5
2018-01-26T06:15:26.009Z,4.9
2018-01-26T06:16:28.510Z,5
2018-01-26T06:17:31.011Z,5
2018-01-26T06:18:33.486Z,5
2018-01-26T06:19:35.984Z,5
2018-01-26T06:20:38.478Z,5.2
2018-01-26T06:21:40.972Z,5
2018-01-26T06:22:43.478Z,4.9
2018-01-26T06:23:45.965Z,5
2018-01-26T06:24:48.465Z,5
2018-01-26T06:25:50.955Z,5
2018-01-26T06:26:53.460Z,5.1
2018-01-26T06:27:55.955Z,5
2018-01-26T06:28:58.446Z,5
2018-01-26T06:30:00.937Z,5
2018-01-26T06:31:03.436Z,4.9
2018-01-26T06:32:06.222Z,5
2018-01-26T06:33:08.723Z,4.9
2018-01-26T06:34:11.204Z,5.1
2018-01-26T06:35:13.712Z,5
2018-01-26T06:36:16.195Z,5.1
2018-01-26T06:37:18.701Z,5
2018-01-26T06:38:21.191Z,5
2018-01-26T06:39:23.694Z,5
2018-01-26T06:40:26.185Z,5
2018-01-26T06:41:28.681Z,4.9
2018-01-26T06:42:31.167Z,5
2018-01-26T06:43:33.673Z,5
2018-01-26T06:44:36.169Z,5
2018-01-26T06:45:38.659Z,5.1
2018-01-26T06:46:41.156Z,4.9
2018-01-26T06:47:43.652Z,5
2018-01-26T06:48:46.154Z,4.9
2018-01-26T06:49:48.647Z,4.9
2018-01-26T06:50:51.155Z,4.9
2018-01-26T06:51:53.654Z,5
2018-01-26T06:52:56.149Z,5.1
2018-01-26T06:53:58.648Z,5.1
2018-01-26T06:55:01.149Z,5
2018-01-26T06:56:03.637Z,5
2018-01-26T06:57:06.162Z,5
2018-01-26T06:58:08.631Z,5
2018-01-26T06:59:11.125Z,4.9
2018-01-26T07:00:13.627Z,4.9
2018-01-26T07:01:16.118Z,5
2018-01-26T07:02:18.616Z,5
2018-01-26T07:03:21.109Z,5
2018-01-26T07:04:23.605Z,5
2018-01-26T07:05:26.099Z,5
2018-01-26T07:06:28.593Z,4.9
2018-01-26T07:07:31.090Z,5
2018-01-26T07:08:33.582Z,4.9
2018-01-26T07:09:36.096Z,4.9
2018-01-26T07:10:38.586Z,5
2018-01-26T07:11:41.087Z,5
2018-01-26T07:12:43.576Z,5.1
2018-01-26T07:13:46.076Z,4.9
2018-01-26T07:14:48.567Z,5
2018-01-26T07:15:51.068Z,5
2018-01-26T07:16:53.555Z,4.9
2018-01-26T07:17:56.057Z,5
2018-01-26T07:18:58.563Z,5
2018-01-26T07:20:01.356Z,5.1
2018-01-26T07:21:03.853Z,5
2018-01-26T07:22:06.361Z,4.9
2018-01-26T07:23:08.856Z,4.9
2018-01-26T07:24:11.340Z,5.1
2018-01-26T07:25:13.858Z,5
2018-01-26T07:26:16.341Z,4.9
2018-01-26T07:27:18.836Z,4.9
2018-01-26T07:28:21.331Z,5
2018-01-26T07:29:23.824Z,5
2018-01-26T07:30:26.319Z,5.1
2018-01-26T07:31:29.153Z,5
2018-01-26T07:32:31.643Z,5
2018-01-26T07:33:34.130Z,5
2018-01-26T07:34:36.626Z,5.1
2018-01-26T07:35:39.131Z,5
2018-01-26T07:36:41.658Z,5
2018-01-26T07:37:44.122Z,5
2018-01-26T07:38:46.615Z,5.2
2018-01-26T07:39:49.125Z,5.1
2018-01-26T07:40:51.938Z,5.1
2018-01-26T07:41:54.717Z,5
2018-01-26T07:42:57.209Z,5.1
2018-01-26T07:43:59.707Z,5
2018-01-26T07:45:02.497Z,5
2018-01-26T07:46:04.999Z,5
2018-01-26T07:47:07.497Z,4.8
2018-01-26T07:48:09.984Z,5
2018-01-26T07:49:12.769Z,4.9
2018-01-26T07:50:15.269Z,5.1
2018-01-26T07:51:18.050Z,4.9
2018-01-26T07:52:20.552Z,5
2018-01-26T07:53:23.049Z,5.1
2018-01-26T07:54:25.541Z,4.9
2018-01-26T07:55:28.328Z,5
2018-01-26T07:56:30.836Z,5
2018-01-26T07:57:33.321Z,4.9
2018-01-26T07:58:36.112Z,5
2018-01-26T07:59:38.609Z,4.9
2018-01-26T08:00:41.103Z,4.9
2018-01-26T08:01:43.591Z,4.9
2018-01-26T08:02:46.089Z,5.1
2018-01-26T08:03:48.581Z,5.1
2018-01-26T08:04:51.083Z,5.1
2018-01-26T08:05:53.581Z,5
2018-01-26T08:06:56.065Z,5.1
2018-01-26T08:07:58.562Z,4.9
2018-01-26T08:09:01.359Z,5
2018-01-26T08:10:03.859Z,4.9
2018-01-26T08:11:06.647Z,4.9
2018-01-26T08:12:09.144Z,5.1
2018-01-26T08:13:11.638Z,5
2018-01-26T08:14:14.148Z,5
2018-01-26T08:15:16.644Z,5
2018-01-26T08:16:19.136Z,5.1
2018-01-26T08:17:21.640Z,5
2018-01-26T08:18:24.135Z,5
2018-01-26T08:19:26.917Z,5
2018-01-26T08:20:29.408Z,5
2018-01-26T08:21:31.931Z,5
2018-01-26T08:22:34.418Z,5.1
2018-01-26T08:23:36.909Z,5.1
2018-01-26T08:24:39.415Z,5.1
2018-01-26T08:25:41.911Z,5
2018-01-26T08:26:44.696Z,5.1
2018-01-26T08:27:47.196Z,5
2018-01-26T08:28:49.679Z,5
2018-01-26T08:29:52.178Z,5.1
2018-01-26T08:30:54.673Z,5
2018-01-26T08:31:57.166Z,5
2018-01-26T08:32:59.659Z,5.1
2018-01-26T08:34:02.455Z,5.1
2018-01-26T08:35:04.944Z,5.1
2018-01-26T08:36:07.447Z,5
2018-01-26T08:37:09.942Z,5.1
2018-01-26T08:38:12.461Z,5
2018-01-26T08:39:14.936Z,5
2018-01-26T08:40:17.443Z,5.1
2018-01-26T08:41:19.927Z,5.2
2018-01-26T08:42:22.745Z,5.1
2018-01-26T08:43:25.241Z,5.1
2018-01-26T08:44:27.730Z,5.1
2018-01-26T08:45:30.227Z,5.1
2018-01-26T08:46:32.721Z,5.1
2018-01-26T08:47:35.198Z,5.1
2018-01-26T08:48:37.704Z,4.9
2018-01-26T08:49:40.196Z,5
2018-01-26T08:50:42.695Z,5
2018-01-26T08:51:45.189Z,5.1
2018-01-26T08:52:47.688Z,5.1
2018-01-26T08:53:50.189Z,5.4
2018-01-26T08:54:52.668Z,5.1
2018-01-26T08:55:55.175Z,5.1
2018-01-26T08:56:57.664Z,5.1
2018-01-26T08:58:00.170Z,5
2018-01-26T08:59:02.958Z,5.2
2018-01-26T09:00:05.450Z,5.2
2018-01-26T09:01:07.942Z,5.9
2018-01-26T09:02:10.766Z,6
2018-01-26T09:03:13.250Z,5.3
2018-01-26T09:04:15.748Z,5.2
2018-01-26T09:05:18.241Z,5.1
2018-01-26T09:06:20.731Z,5.1
2018-01-26T09:07:23.228Z,5.2
2018-01-26T09:08:25.731Z,5.1
2018-01-26T09:09:28.297Z,5.2
2018-01-26T09:10:31.015Z,5.2
2018-01-26T09:11:33.511Z,5.3
2018-01-26T09:12:36.014Z,5.2
2018-01-26T09:13:38.826Z,5.1
2018-01-26T09:14:41.325Z,5.2
2018-01-26T09:15:43.816Z,5.2
2018-01-26T09:16:46.310Z,5.1
2018-01-26T09:17:48.809Z,5.2
2018-01-26T09:18:51.306Z,5.1
2018-01-26T09:19:53.796Z,5.1
2018-01-26T09:20:56.317Z,5.1
2018-01-26T09:21:58.815Z,5.3
2018-01-26T09:23:01.311Z,5.2
2018-01-26T09:24:03.804Z,5.2
2018-01-26T09:25:06.299Z,5.3
2018-01-26T09:26:08.800Z,5.1
2018-01-26T09:27:11.302Z,5.7
2018-01-26T09:28:14.079Z,5.2
2018-01-26T09:29:16.569Z,5.2
2018-01-26T09:30:19.076Z,5.3
2018-01-26T09:31:21.576Z,5.2
2018-01-26T09:32:24.068Z,5.2
2018-01-26T09:33:26.581Z,5.2
2018-01-26T09:34:29.060Z,5.1
2018-01-26T09:35:31.555Z,5.1
2018-01-26T09:36:34.058Z,5.2
2018-01-26T09:37:36.542Z,5.2
2018-01-26T09:38:39.624Z,5.3
2018-01-26T09:39:42.135Z,5.3
2018-01-26T09:40:44.627Z,5.2
2018-01-26T09:41:47.121Z,5.3
2018-01-26T09:42:49.637Z,5.1
2018-01-26T09:43:52.105Z,5.2
2018-01-26T09:44:54.900Z,5.1
2018-01-26T09:45:57.400Z,5.1
2018-01-26T09:46:59.875Z,5.1
2018-01-26T09:48:02.676Z,5.1
2018-01-26T09:49:05.168Z,5.1
2018-01-26T09:50:07.667Z,5.2
2018-01-26T09:51:10.164Z,5.2
2018-01-26T09:52:12.661Z,5.2
2018-01-26T09:53:15.148Z,5.1
2018-01-26T09:54:17.949Z,5.2
2018-01-26T09:55:20.720Z,5.1
2018-01-26T09:56:23.216Z,5.1
2018-01-26T09:57:25.714Z,5.1
2018-01-26T09:58:28.211Z,5
2018-01-26T09:59:30.700Z,5.1
2018-01-26T10:00:33.212Z,5.1
2018-01-26T10:01:35.689Z,5.1
2018-01-26T10:02:38.208Z,5.1
2018-01-26T10:03:40.685Z,5.1
2018-01-26T10:04:43.190Z,5.1
2018-01-26T10:05:45.690Z,5.2
2018-01-26T10:06:48.187Z,5.2
2018-01-26T10:07:50.976Z,5.2
2018-01-26T10:08:54.073Z,5.1
2018-01-26T10:09:56.571Z,5.1
2018-01-26T10:10:59.079Z,5.1
2018-01-26T10:12:01.587Z,5.1
2018-01-26T10:13:04.065Z,5.2
2018-01-26T10:14:06.636Z,5.2
2018-01-26T10:15:09.138Z,5.2
2018-01-26T10:16:11.631Z,5.1
2018-01-26T10:17:14.113Z,5.2
2018-01-26T10:18:16.912Z,5.2
2018-01-26T10:19:19.981Z,5.1
2018-01-26T10:20:22.762Z,5.1
2018-01-26T10:21:25.250Z,5.2
2018-01-26T10:22:28.035Z,5.5
2018-01-26T10:23:30.523Z,5.2
2018-01-26T10:24:33.032Z,5.2
2018-01-26T10:25:35.510Z,5.2
2018-01-26T10:26:38.011Z,5.2
2018-01-26T10:27:40.812Z,5.3
2018-01-26T10:28:43.303Z,5.3
2018-01-26T10:29:46.321Z,5.2
2018-01-26T10:30:48.844Z,5.2
2018-01-26T10:31:51.445Z,5.3
2018-01-26T10:32:54.398Z,5.3
2018-01-26T10:33:57.417Z,5.2
2018-01-26T10:34:59.984Z,5.4
2018-01-26T10:36:02.578Z,5.2
2018-01-26T10:37:05.237Z,5.5
2018-01-26T10:38:07.816Z,5.2
2018-01-26T10:39:10.269Z,5.2
2018-01-26T10:40:12.766Z,5.3
2018-01-26T10:41:15.558Z,5.3
2018-01-26T10:42:18.344Z,5.2
2018-01-26T10:43:20.848Z,5.3
2018-01-26T10:44:23.334Z,5.2
2018-01-26T10:45:26.137Z,5.2
2018-01-26T10:46:28.918Z,5.3
2018-01-26T10:47:31.412Z,5.3
2018-01-26T10:48:33.909Z,5.2
2018-01-26T10:49:36.414Z,5.3
2018-01-26T10:50:38.913Z,5.1
2018-01-26T10:51:41.402Z,5.3
2018-01-26T10:52:43.910Z,5.5
2018-01-26T10:53:46.698Z,5.4
2018-01-26T10:54:49.198Z,5.3
2018-01-26T10:55:51.982Z,5.3
2018-01-26T10:56:54.484Z,5.3
2018-01-26T10:57:57.263Z,5.1
2018-01-26T10:58:59.781Z,5.3
2018-01-26T11:00:02.574Z,5.1
2018-01-26T11:01:05.066Z,5.1
2018-01-26T11:02:07.572Z,5.2
2018-01-26T11:03:10.075Z,5.2
2018-01-26T11:04:12.577Z,5.3
2018-01-26T11:05:15.071Z,5.4
2018-01-26T11:06:17.575Z,5.3
2018-01-26T11:07:20.362Z,5.3
2018-01-26T11:08:22.865Z,5.3
2018-01-26T11:09:25.364Z,5.2
2018-01-26T11:10:28.145Z,5.2
2018-01-26T11:11:30.641Z,5.2
2018-01-26T11:12:33.135Z,5.2
2018-01-26T11:13:36.220Z,5.2
2018-01-26T11:14:38.712Z,5.2
2018-01-26T11:15:41.821Z,5.3
2018-01-26T11:16:44.316Z,5.3
2018-01-26T11:17:46.821Z,5.2
2018-01-26T11:18:49.313Z,5.2
2018-01-26T11:19:51.811Z,5.2
2018-01-26T11:20:54.312Z,5.2
2018-01-26T11:21:56.816Z,5.2
2018-01-26T11:22:59.305Z,5.2
2018-01-26T11:24:01.823Z,5.3
2018-01-26T11:25:04.311Z,5.4
2018-01-26T11:26:06.818Z,5.3
2018-01-26T11:27:09.617Z,5.2
2018-01-26T11:28:12.113Z,5.3
2018-01-26T11:29:14.613Z,5.3
2018-01-26T11:30:17.407Z,5.2
2018-01-26T11:31:19.901Z,5.3
2018-01-26T11:32:22.721Z,5.3
2018-01-26T11:33:25.206Z,5.2
2018-01-26T11:34:27.706Z,5.2
2018-01-26T11:35:30.204Z,5.5
2018-01-26T11:36:32.718Z,5.3
2018-01-26T11:37:35.502Z,5.4
2018-01-26T11:38:38.298Z,5.2
2018-01-26T11:39:40.793Z,5.3
2018-01-26T11:40:43.296Z,5.2
2018-01-26T11:41:45.799Z,5.2
2018-01-26T11:42:48.298Z,5.3
2018-01-26T11:43:50.786Z,5.4
2018-01-26T11:44:53.289Z,5.3
2018-01-26T11:45:55.798Z,5.3
2018-01-26T11:46:58.294Z,5.3
2018-01-26T11:48:00.802Z,5.3
2018-01-26T11:49:03.589Z,5.2
2018-01-26T11:50:06.095Z,5.3
2018-01-26T11:51:08.576Z,5.2
2018-01-26T11:52:11.072Z,5.2
2018-01-26T11:53:13.580Z,5.2
2018-01-26T11:54:16.079Z,5.1
2018-01-26T11:55:18.579Z,5.2
2018-01-26T11:56:21.084Z,5.2
2018-01-26T11:57:23.579Z,5.2
2018-01-26T11:58:26.373Z,5.1
2018-01-26T11:59:28.882Z,5.2
2018-01-26T12:00:31.357Z,5.2
2018-01-26T12:01:33.865Z,5.2
2018-01-26T12:02:36.368Z,5.3
2018-01-26T12:03:38.860Z,5.4
2018-01-26T12:04:41.365Z,5.3
2018-01-26T12:05:43.849Z,5.3
2018-01-26T12:06:46.352Z,5.4
2018-01-26T12:07:48.872Z,5.2
2018-01-26T12:08:51.365Z,5.2
2018-01-26T12:09:53.864Z,5.2
2018-01-26T12:10:56.674Z,5.3
2018-01-26T12:11:59.169Z,5.3
2018-01-26T12:13:01.679Z,5.3
2018-01-26T12:14:04.253Z,5.3
2018-01-26T12:15:07.048Z,5.3
2018-01-26T12:16:09.561Z,5.2
2018-01-26T12:17:12.070Z,5.1
2018-01-26T12:18:14.853Z,5.2
2018-01-26T12:19:17.352Z,5.2
2018-01-26T12:20:19.855Z,5.2
2018-01-26T12:21:22.354Z,5.3
2018-01-26T12:22:24.851Z,5.2
2018-01-26T12:23:27.355Z,5.2
2018-01-26T12:24:29.840Z,5.3
2018-01-26T12:25:32.347Z,5.2
2018-01-26T12:26:34.848Z,5.2
2018-01-26T12:27:37.355Z,5.3
2018-01-26T12:28:39.856Z,5.3
2018-01-26T12:29:42.352Z,5.2
2018-01-26T12:30:44.843Z,5.4
2018-01-26T12:31:47.363Z,5.3
2018-01-26T12:32:50.148Z,5.3
2018-01-26T12:33:52.644Z,5.2
2018-01-26T12:34:55.149Z,5.3
2018-01-26T12:35:57.649Z,5.3
2018-01-26T12:37:00.169Z,5.3
2018-01-26T12:38:02.662Z,5.3
2018-01-26T12:39:05.144Z,5.4
2018-01-26T12:40:07.651Z,5.3
2018-01-26T12:41:10.147Z,5.3
2018-01-26T12:42:12.655Z,5.3
2018-01-26T12:43:15.152Z,5.3
2018-01-26T12:44:17.657Z,5.3
2018-01-26T12:45:20.744Z,5.3
2018-01-26T12:46:23.240Z,5.4
2018-01-26T12:47:25.733Z,5.3
2018-01-26T12:48:28.238Z,5.4
2018-01-26T12:49:30.727Z,5.3
2018-01-26T12:50:33.231Z,5.4
2018-01-26T12:51:36.014Z,5.3
2018-01-26T12:52:38.814Z,5.4
2018-01-26T12:53:41.309Z,5.3
2018-01-26T12:54:43.809Z,5.4
2018-01-26T12:55:46.306Z,5.3
2018-01-26T12:56:48.803Z,5.2
2018-01-26T12:57:51.305Z,5.4
2018-01-26T12:58:53.807Z,5.2
2018-01-26T12:59:56.291Z,5.4
2018-01-26T13:00:58.796Z,5.3
2018-01-26T13:02:01.290Z,5.4
2018-01-26T13:03:03.797Z,5.2
2018-01-26T13:04:06.295Z,5.2
2018-01-26T13:05:08.789Z,5.3
2018-01-26T13:06:11.283Z,5.2
2018-01-26T13:07:13.781Z,5.3
2018-01-26T13:08:16.581Z,5.2
2018-01-26T13:09:19.367Z,5.3
2018-01-26T13:10:21.871Z,5.3
2018-01-26T13:11:24.373Z,5.1
2018-01-26T13:12:26.869Z,5.2
2018-01-26T13:13:29.377Z,5.2
2018-01-26T13:14:31.869Z,5.2
2018-01-26T13:15:34.664Z,5.2
2018-01-26T13:16:37.177Z,5.4
2018-01-26T13:17:39.670Z,5.3
2018-01-26T13:18:42.455Z,5.3
2018-01-26T13:19:45.247Z,5.3
2018-01-26T13:20:48.043Z,5.3
2018-01-26T13:21:50.547Z,5.3
2018-01-26T13:22:53.057Z,5.3
2018-01-26T13:23:55.535Z,5.2
2018-01-26T13:24:58.039Z,5.3
2018-01-26T13:26:00.553Z,5.2
2018-01-26T13:27:03.049Z,5.2
2018-01-26T13:28:05.540Z,5.1
2018-01-26T13:29:08.034Z,5.3
2018-01-26T13:30:10.815Z,5.3
2018-01-26T13:31:13.613Z,5.4
2018-01-26T13:32:16.392Z,5.4
2018-01-26T13:33:18.943Z,5.3
2018-01-26T13:34:21.439Z,5.3
2018-01-26T13:35:24.221Z,5.3
2018-01-26T13:36:26.722Z,5.3
2018-01-26T13:37:29.519Z,5.3
2018-01-26T13:38:32.009Z,5.3
2018-01-26T13:39:34.510Z,5.3
2018-01-26T13:40:37.026Z,5.3
2018-01-26T13:41:39.811Z,5.2
2018-01-26T13:42:42.590Z,5.4
2018-01-26T13:43:45.096Z,5.4
2018-01-26T13:44:47.591Z,5.4
2018-01-26T13:45:50.087Z,5.3
2018-01-26T13:46:52.584Z,5.2
2018-01-26T13:47:55.083Z,5.3
2018-01-26T13:48:57.869Z,5.3
2018-01-26T13:50:00.383Z,5.3
2018-01-26T13:51:02.874Z,5.4
2018-01-26T13:52:05.379Z,5.4
2018-01-26T13:53:08.460Z,5.4
2018-01-26T13:54:11.252Z,5.4
2018-01-26T13:55:13.750Z,5.3
2018-01-26T13:56:16.559Z,5.3
2018-01-26T13:57:19.047Z,5.3
2018-01-26T13:58:21.840Z,5.4
2018-01-26T13:59:24.678Z,5.4
2018-01-26T14:00:27.567Z,5.3
2018-01-26T14:01:30.021Z,5.3
2018-01-26T14:02:32.522Z,5.2
2018-01-26T14:03:35.005Z,5.3
2018-01-26T14:04:37.539Z,5.3
2018-01-26T14:05:40.022Z,5.2
2018-01-26T14:06:42.838Z,5.3
2018-01-26T14:07:45.333Z,5.2
2018-01-26T14:08:47.827Z,5.2
2018-01-26T14:09:50.319Z,5.3
2018-01-26T14:10:52.835Z,5.4
2018-01-26T14:11:55.313Z,5.2
2018-01-26T14:12:57.817Z,5.3
2018-01-26T14:14:00.323Z,5.4
2018-01-26T14:15:02.820Z,5.2
2018-01-26T14:16:05.323Z,5.3
2018-01-26T14:17:07.821Z,5.3
2018-01-26T14:18:10.314Z,5.5
2018-01-26T14:19:12.816Z,5.4
2018-01-26T14:20:15.310Z,5.3
2018-01-26T14:21:17.824Z,5.3
2018-01-26T14:22:20.312Z,5.4
2018-01-26T14:23:22.814Z,5.3
2018-01-26T14:24:25.605Z,5.3
2018-01-26T14:25:28.105Z,5.3
2018-01-26T14:26:30.611Z,5.3
2018-01-26T14:27:33.113Z,5.2
2018-01-26T14:28:35.896Z,5.3
2018-01-26T14:29:38.398Z,5.3
2018-01-26T14:30:40.903Z,5.2
2018-01-26T14:31:43.401Z,5.5
2018-01-26T14:32:45.906Z,5.4
2018-01-26T14:33:48.691Z,5.3
2018-01-26T14:34:51.185Z,5.3
2018-01-26T14:35:53.702Z,5.2
2018-01-26T14:36:56.198Z,5.5
2018-01-26T14:37:58.703Z,5.3
2018-01-26T14:39:01.199Z,5.2
2018-01-26T14:40:03.699Z,5.2